หน้าหลัก
METAR-TAF:

METAR-TAF

ท่าอากาศยาน :

Kariba, ซิมบับเว

ละติจูด: 16-31S, ลองจิจูด: 028-53E, ความสูง: 518 ม.

การสังเกตสภาพอากาศปัจจุบัน

รายงานได้ทำขึ้นเมื่อ 6 ชั่วโมงและ 50 นาทีที่แล้ว ณ เวลา 12:00 UTC
ลม 7 นอตจากตะวันตก/ตะวันตกเฉียงใต้, แปรผันระหว่างใต้/ตะวันตกเฉียงใต้ และตะวันตก
อุณหภูมิ 29°C
ความชื้น 52%
ความกดอากาศ 1018 hPa
ทัศนวิสัย 10 กม. หรือมากกว่า
ไม่มีเมฆต่ำกว่า 1,500 ม. และไม่มีเมฆคิวมูโลนิมบัส

METAR: FVKB 151200Z 25007KT 210V270 CAVOK 29/18 Q1018 NOSIG

เวลา: 20:50 (18:50 UTC)


TAF: หายไป

สังเกตการณ์สภาพอากาศและพยากรณ์อากาศของสนามบินมากกว่า 4000 แห่ง (รายงาน METAR และ TAF).

สถานีที่ดูได้จะแสดงไว้ด้วยจุดสีเหลืองและสีแดงบนแผนที่.

เลื่อนเมาส์ไปเหนือจุดเพื่อดูชื่อสถานี.

แล้วคลิกเพื่อดูสังเกตการณ์และการพยากรณ์สภาพอากาศ.

ในการเปลี่ยนแผนที่: คลิกที่ปุ่มสีเขียวที่มีกากบาทสีดำเพื่อซูมเข้า; ที่ปุ่มสีเขียวที่มีขีดเพื่อซูมออก; หรือที่ลูกศรสีเขียวเพื่อไปยังแผนที่ที่อยู่ติดกัน.


METAR-TAF: